Main page
METAR-TAF:

METAR-TAF

Airports :

Wadena Municipal Airport

Wadena, Minnesota, United States

latitude: 46-27-01N, longitude: 095-12-39W, elevation: 1368 ft

Current weather observation

The report was made 31 minutes ago, at 09:15 UTC
Wind 6 mph from the West
Temperature 28°F
Humidity 93%
Pressure 29.76 in. Hg
Visibility: 7 miles
Clear sky

METAR: KADC 220915Z AUTO 27005KT 7SM CLR M02/M03 A2976 RMK AO2

Time: 03:46 (09:46 UTC)


TAF: missing

Weather observations and forecasts of more than 4000 airports (METAR and TAF reports).

The available stations are represented by yellow and red dots on the map.

Hover mouse over dot to see the name of the station.

Then click to see weather observations and forecasts.

To change the map : click on the green buttons with a black cross to zoom in, on the green button with a dash to zoom out, or on the green arrows for adjacent maps.


METAR-TAF: